Terminal Aerodrome Forecast
Issued by NWS

Home | Current Version | Previous Version | Text Only | Print | Product List | Glossary On
Versions: 1 2 3 4 5 6 7 8 9 10 11 12 13 14 15 16 17
000
FTAK31 PAJN 201500 AAA
TAFASI
TAF AMD
PASI 201517Z 2015/2112 10015G25KT P6SM SCT025 OVC040
      TEMPO 2016/2020 10020G35KT 4SM RA BR BKN025 OVC040
     FM202000 16012G17KT 4SM -RA BR BKN020 OVC030 WS020/18035KT
     FM202200 26007KT P6SM VCSH SCT020 OVC045
     FM210900 11010KT 5SM RA BR SCT030 OVC050=

USA.gov is the U.S. government's official web portal to all federal, state and local government web resources and services.